GCHI

Hierro Airport

El Hierro Island, Spain
METAR GCHI 201500Z 01010KT 330V040 9999 FEW030 20/12 Q1017
Observed Flight Rules
Feb-20 @ 15:00 UTC (2 hours ago) Visual Flight Rules
Wind Visibility Clouds
10° at 10 knots 10,000+ meters
  • Few at 3,000' AGL
Temperatures Readings
Current 20°C / 68°F
Dewpoint 12°C / 54°F
Humidity 60%
Altimeter 30.03" Hg
Pressure 1017 hPa
Elevation 30
METAR GCHI 201500Z 01010KT 330V040 9999 FEW030 20/12 Q1017
Observed Flight Rules
Feb-20 @ 15:00 UTC
(2 hours ago)
VFR
Wind Visibility
10° at 10 knots 10,000+ meters
Clouds
  • Few at 3,000' AGL
Temperature Dewpoint
20°C / 68°F 12°C / 54°F
Humidity Altimeter Pressure
60% 30.03" Hg 1017 hPa